createdAt,value
2023-02-11T00:01:54.800Z,35.40
2023-02-11T00:04:21.795Z,33.95
2023-02-11T00:06:48.607Z,34.40
2023-02-11T00:09:15.484Z,34.17
2023-02-11T00:11:42.357Z,34.15
2023-02-11T00:14:11.898Z,33.15
2023-02-11T00:16:39.224Z,30.35
2023-02-11T00:19:06.759Z,24.48
2023-02-11T00:21:34.609Z,24.73
2023-02-11T00:24:02.404Z,25.90
2023-02-11T00:26:32.683Z,24.20
2023-02-11T00:29:01.538Z,26.40
2023-02-11T00:31:30.087Z,25.75
2023-02-11T00:33:57.097Z,25.10
2023-02-11T00:36:26.438Z,25.63
2023-02-11T00:38:54.770Z,24.65
2023-02-11T00:41:22.691Z,24.92
2023-02-11T00:43:50.240Z,25.02
2023-02-11T00:46:19.038Z,21.67
2023-02-11T00:48:46.142Z,23.48
2023-02-11T00:51:14.089Z,22.33
2023-02-11T00:53:41.302Z,22.95
2023-02-11T00:56:08.618Z,22.02
2023-02-11T00:58:37.015Z,22.35
2023-02-11T01:01:04.563Z,22.42
2023-02-11T01:03:31.860Z,22.98
2023-02-11T01:05:58.699Z,23.80
2023-02-11T01:08:25.706Z,23.65
2023-02-11T01:11:01.305Z,23.35
2023-02-11T01:13:29.726Z,26.33
2023-02-11T01:15:58.107Z,29.55
2023-02-11T01:18:26.357Z,30.05
2023-02-11T01:20:54.559Z,29.73
2023-02-11T01:23:23.597Z,29.90
2023-02-11T01:25:51.676Z,32.47
2023-02-11T01:28:25.146Z,32.42
2023-02-11T01:30:53.614Z,29.77
2023-02-11T01:33:20.832Z,35.20
2023-02-11T01:35:47.985Z,35.55
2023-02-11T01:38:21.695Z,35.30
2023-02-11T01:40:51.833Z,38.15
2023-02-11T01:43:19.720Z,41.05
2023-02-11T01:45:47.214Z,38.55
2023-02-11T01:48:22.688Z,37.90
2023-02-11T01:50:54.892Z,31.25
2023-02-11T01:53:41.164Z,28.50
2023-02-11T01:56:27.389Z,28.08
2023-02-11T01:58:58.212Z,22.50
2023-02-11T02:01:27.693Z,20.73
2023-02-11T02:03:59.930Z,22.30
2023-02-11T02:06:37.362Z,26.30
2023-02-11T02:09:09.559Z,25.45
2023-02-11T02:11:36.848Z,25.95
2023-02-11T02:14:03.939Z,25.88
2023-02-11T02:16:35.086Z,23.27
2023-02-11T02:19:11.147Z,25.10
2023-02-11T02:22:02.570Z,22.48
2023-02-11T02:24:35.707Z,23.20
2023-02-11T02:27:40.166Z,23.23
2023-02-11T02:30:13.053Z,23.42
2023-02-11T02:32:52.568Z,25.63
2023-02-11T02:35:37.865Z,24.77
2023-02-11T02:38:33.795Z,24.70
2023-02-11T02:41:13.639Z,26.38
2023-02-11T02:43:44.184Z,32.10
2023-02-11T02:46:21.595Z,36.03
2023-02-11T02:48:49.854Z,33.03
2023-02-11T02:51:25.660Z,28.65
2023-02-11T02:54:08.819Z,25.58
2023-02-11T02:56:48.324Z,25.75
2023-02-11T02:59:37.982Z,25.77
2023-02-11T03:02:43.297Z,23.30
2023-02-11T03:05:23.601Z,27.92
2023-02-11T03:08:22.388Z,27.60
2023-02-11T03:10:53.658Z,29.08
2023-02-11T03:13:26.660Z,27.23
2023-02-11T03:15:57.360Z,29.15
2023-02-11T03:18:29.427Z,29.50
2023-02-11T03:20:57.787Z,28.67
2023-02-11T03:23:42.084Z,30.30
2023-02-11T03:26:27.460Z,28.25
2023-02-11T03:29:13.204Z,28.98
2023-02-11T03:31:50.515Z,30.23
2023-02-11T03:34:42.721Z,30.35
2023-02-11T03:37:18.001Z,28.80
2023-02-11T03:40:13.480Z,29.05
2023-02-11T03:42:48.926Z,29.92
2023-02-11T03:45:20.478Z,29.83
2023-02-11T03:47:52.032Z,30.33
2023-02-11T03:50:21.366Z,30.25
2023-02-11T03:52:49.937Z,31.95
2023-02-11T03:55:20.785Z,34.28
2023-02-11T03:57:48.859Z,32.67
2023-02-11T04:00:16.055Z,32.85
2023-02-11T04:02:43.326Z,31.75
2023-02-11T04:05:13.480Z,30.67
2023-02-11T04:07:40.813Z,28.63
2023-02-11T04:10:08.703Z,26.38
2023-02-11T04:12:36.211Z,23.52
2023-02-11T04:15:03.278Z,22.50
2023-02-11T04:17:30.258Z,22.65
2023-02-11T04:19:57.217Z,23.05
2023-02-11T04:22:24.491Z,24.90
2023-02-11T04:24:51.304Z,23.70
2023-02-11T04:27:18.743Z,27.02
2023-02-11T04:29:45.530Z,27.08
2023-02-11T04:32:12.894Z,26.55
2023-02-11T04:34:39.959Z,27.67
2023-02-11T04:37:08.465Z,27.48
2023-02-11T04:39:35.787Z,28.55
2023-02-11T04:42:02.967Z,34.15
2023-02-11T04:44:29.839Z,34.53
2023-02-11T04:46:57.324Z,33.65
2023-02-11T04:49:24.282Z,23.70
2023-02-11T04:51:51.244Z,21.55
2023-02-11T04:54:18.426Z,21.20
2023-02-11T04:56:45.415Z,25.05
2023-02-11T04:59:13.378Z,21.55
2023-02-11T05:01:40.885Z,23.10
2023-02-11T05:04:07.956Z,23.83
2023-02-11T05:06:35.049Z,22.85
2023-02-11T05:09:01.909Z,29.58
2023-02-11T05:11:30.016Z,31.85
2023-02-11T05:13:56.781Z,30.65
2023-02-11T05:16:24.053Z,29.23
2023-02-11T05:18:52.629Z,29.10
2023-02-11T05:21:19.757Z,25.23
2023-02-11T05:23:46.632Z,24.58
2023-02-11T05:26:14.378Z,25.33
2023-02-11T05:28:41.739Z,31.17
2023-02-11T05:31:11.337Z,39.42
2023-02-11T05:33:38.299Z,45.20
2023-02-11T05:36:08.521Z,44.92
2023-02-11T05:38:36.610Z,47.55
2023-02-11T05:41:04.758Z,50.72
2023-02-11T05:43:31.942Z,49.95
2023-02-11T05:45:59.177Z,48.90
2023-02-11T05:48:26.010Z,51.40
2023-02-11T05:50:53.085Z,51.50
2023-02-11T05:53:20.025Z,45.63
2023-02-11T05:55:47.139Z,45.25
2023-02-11T05:58:13.976Z,44.78
2023-02-11T06:00:40.860Z,44.00
2023-02-11T06:03:08.235Z,40.95
2023-02-11T06:05:36.194Z,41.88
2023-02-11T06:08:03.286Z,42.33
2023-02-11T06:10:30.498Z,45.20
2023-02-11T06:12:57.424Z,39.92
2023-02-11T06:15:24.372Z,49.20
2023-02-11T06:17:51.935Z,57.40
2023-02-11T06:20:19.540Z,59.15
2023-02-11T06:22:46.693Z,57.25
2023-02-11T06:25:14.090Z,57.80
2023-02-11T06:27:41.088Z,59.95
2023-02-11T06:30:09.048Z,70.03
2023-02-11T06:32:44.050Z,69.00
2023-02-11T06:35:13.746Z,64.50
2023-02-11T06:37:41.822Z,95.60
2023-02-11T06:40:09.688Z,86.30
2023-02-11T06:42:38.823Z,83.03
2023-02-11T06:45:13.518Z,85.55
2023-02-11T06:47:41.488Z,99.53
2023-02-11T06:50:12.287Z,107.47
2023-02-11T06:52:39.584Z,118.95
2023-02-11T06:55:06.567Z,94.00
2023-02-11T06:57:33.844Z,105.70
2023-02-11T07:00:00.799Z,105.88
2023-02-11T07:02:27.829Z,109.57
2023-02-11T07:04:54.771Z,91.10
2023-02-11T07:07:21.843Z,88.10
2023-02-11T07:09:48.685Z,81.43
2023-02-11T07:12:15.723Z,72.72
2023-02-11T07:14:42.948Z,60.47
2023-02-11T07:17:09.909Z,57.53
2023-02-11T07:19:36.701Z,52.63
2023-02-11T07:22:04.034Z,54.72
2023-02-11T07:24:31.062Z,29.33
2023-02-11T07:26:58.078Z,23.33
2023-02-11T07:29:24.897Z,22.45
2023-02-11T07:31:52.045Z,16.40
2023-02-11T07:34:18.888Z,21.80
2023-02-11T07:36:46.372Z,24.65
2023-02-11T07:39:13.799Z,37.92
2023-02-11T07:41:41.399Z,32.00
2023-02-11T07:44:08.256Z,39.53
2023-02-11T07:46:36.046Z,34.78
2023-02-11T07:49:03.763Z,35.47
2023-02-11T07:51:31.548Z,35.85
2023-02-11T07:54:00.284Z,29.02
2023-02-11T07:56:28.603Z,28.42
2023-02-11T07:58:56.956Z,33.97
2023-02-11T08:01:28.673Z,27.42
2023-02-11T08:03:58.001Z,26.77
2023-02-11T08:06:27.279Z,25.85
2023-02-11T08:08:54.627Z,19.83
2023-02-11T08:11:23.841Z,18.00
2023-02-11T08:13:51.960Z,16.75
2023-02-11T08:16:28.342Z,23.67
2023-02-11T08:19:01.351Z,19.38
2023-02-11T08:21:29.473Z,20.70
2023-02-11T08:23:57.045Z,22.00
2023-02-11T08:26:27.529Z,18.75
2023-02-11T08:28:56.683Z,9.95
2023-02-11T08:31:30.099Z,12.95
2023-02-11T08:34:00.184Z,13.07
2023-02-11T08:36:30.090Z,13.50
2023-02-11T08:39:16.160Z,16.77
2023-02-11T08:41:47.060Z,17.33
2023-02-11T08:44:13.835Z,15.57
2023-02-11T08:46:40.876Z,15.82
2023-02-11T08:49:07.735Z,17.35
2023-02-11T08:51:35.003Z,15.45
2023-02-11T08:54:02.416Z,12.32
2023-02-11T08:56:31.479Z,14.63
2023-02-11T08:58:59.311Z,14.43
2023-02-11T09:01:29.648Z,15.45
2023-02-11T09:03:58.670Z,15.40
2023-02-11T09:06:27.098Z,12.10
2023-02-11T09:08:56.064Z,13.70
2023-02-11T09:11:31.644Z,16.38
2023-02-11T09:13:59.316Z,14.13
2023-02-11T09:16:28.912Z,24.20
2023-02-11T09:19:00.661Z,19.77
2023-02-11T09:21:28.136Z,17.90
2023-02-11T09:23:56.113Z,38.75
2023-02-11T09:26:29.181Z,23.52
2023-02-11T09:28:56.872Z,20.80
2023-02-11T09:31:26.578Z,15.10
2023-02-11T09:33:56.470Z,16.00
2023-02-11T09:36:29.125Z,14.88
2023-02-11T09:38:58.733Z,15.02
2023-02-11T09:41:25.798Z,14.45
2023-02-11T09:43:58.991Z,14.35
2023-02-11T09:46:30.706Z,13.00
2023-02-11T09:48:59.293Z,12.88
2023-02-11T09:51:43.258Z,13.60
2023-02-11T09:54:21.673Z,11.50
2023-02-11T09:56:48.468Z,12.68
2023-02-11T09:59:18.688Z,14.43
2023-02-11T10:02:02.272Z,12.52
2023-02-11T10:04:48.034Z,38.63
2023-02-11T10:07:27.110Z,14.25
2023-02-11T10:10:12.068Z,18.02
2023-02-11T10:12:54.345Z,18.30
2023-02-11T10:15:45.200Z,19.85
2023-02-11T10:18:45.928Z,18.88
2023-02-11T10:21:29.638Z,12.23
2023-02-11T10:24:04.637Z,13.32
2023-02-11T10:26:32.951Z,12.43
2023-02-11T10:29:06.145Z,12.77
2023-02-11T10:31:42.055Z,12.80
2023-02-11T10:34:13.600Z,13.32
2023-02-11T10:36:42.786Z,14.25
2023-02-11T10:39:15.909Z,16.00
2023-02-11T10:42:06.842Z,13.35
2023-02-11T10:44:36.347Z,14.52
2023-02-11T10:47:12.397Z,14.07
2023-02-11T10:49:42.371Z,16.45
2023-02-11T10:52:30.714Z,14.60
2023-02-11T10:54:59.392Z,17.80
2023-02-11T10:57:46.168Z,19.73
2023-02-11T11:00:43.748Z,23.67
2023-02-11T11:03:28.109Z,23.17
2023-02-11T11:06:04.026Z,18.13
2023-02-11T11:09:04.717Z,16.65
2023-02-11T11:11:31.663Z,16.48
2023-02-11T11:14:00.609Z,14.90
2023-02-11T11:16:36.950Z,14.43
2023-02-11T11:19:06.806Z,15.77
2023-02-11T11:21:55.032Z,25.02
2023-02-11T11:24:34.706Z,14.55
2023-02-11T11:27:04.247Z,14.38
2023-02-11T11:29:38.637Z,14.85
2023-02-11T11:32:28.206Z,12.90
2023-02-11T11:34:59.183Z,13.98
2023-02-11T11:37:31.257Z,13.20
2023-02-11T11:40:01.177Z,11.95
2023-02-11T11:42:29.434Z,13.38
2023-02-11T11:45:23.271Z,12.95
2023-02-11T11:48:27.118Z,13.35
2023-02-11T11:50:58.615Z,12.50
2023-02-11T11:53:28.109Z,14.10
2023-02-11T11:56:03.770Z,13.65
2023-02-11T11:58:32.462Z,12.88
2023-02-11T12:01:41.126Z,16.45
2023-02-11T12:04:23.491Z,13.35
2023-02-11T12:07:10.891Z,13.15
2023-02-11T12:09:49.862Z,15.13
2023-02-11T12:12:32.653Z,13.32
2023-02-11T12:15:08.465Z,13.00
2023-02-11T12:17:43.560Z,13.68
2023-02-11T12:20:14.127Z,13.55
2023-02-11T12:23:09.869Z,12.02
2023-02-11T12:25:59.279Z,11.27
2023-02-11T12:28:29.138Z,13.90
2023-02-11T12:31:20.630Z,13.98
2023-02-11T12:33:59.855Z,12.88
2023-02-11T12:36:32.739Z,12.50
2023-02-11T12:39:04.021Z,14.10
2023-02-11T12:44:51.984Z,12.15
2023-02-11T12:47:42.478Z,14.40
2023-02-11T12:50:25.867Z,12.43
2023-02-11T12:53:14.885Z,12.07
2023-02-11T12:55:47.420Z,11.05
2023-02-11T12:58:23.873Z,12.35
2023-02-11T13:01:04.578Z,11.95
2023-02-11T13:03:39.351Z,15.48
2023-02-11T13:06:21.321Z,12.88
2023-02-11T13:09:21.134Z,10.57
2023-02-11T13:11:58.004Z,15.63
2023-02-11T13:14:33.467Z,14.50
2023-02-11T13:17:16.199Z,12.63
2023-02-11T13:19:53.455Z,13.77
2023-02-11T13:22:29.913Z,13.73
2023-02-11T13:25:04.364Z,16.73
2023-02-11T13:27:59.933Z,14.85
2023-02-11T13:30:30.529Z,12.13
2023-02-11T13:32:57.332Z,13.30
2023-02-11T13:35:30.128Z,15.48
2023-02-11T13:37:59.137Z,15.45
2023-02-11T13:40:33.995Z,14.15
2023-02-11T13:43:04.732Z,14.45
2023-02-11T13:45:43.912Z,13.32
2023-02-11T13:48:31.800Z,11.20
2023-02-11T13:51:02.352Z,10.52
2023-02-11T13:53:30.141Z,13.50
2023-02-11T13:56:13.036Z,12.35
2023-02-11T13:59:02.008Z,10.68
2023-02-11T14:02:07.790Z,14.38
2023-02-11T14:04:53.239Z,12.27
2023-02-11T14:07:50.468Z,12.65
2023-02-11T14:10:42.452Z,18.58
2023-02-11T14:13:25.611Z,17.45
2023-02-11T14:16:17.215Z,14.20
2023-02-11T14:18:49.877Z,14.98
2023-02-11T14:21:23.006Z,10.48
2023-02-11T14:23:56.189Z,13.63
2023-02-11T14:26:38.912Z,14.65
2023-02-11T14:29:33.139Z,16.08
2023-02-11T14:32:06.041Z,13.63
2023-02-11T14:34:43.389Z,13.00
2023-02-11T14:37:10.216Z,10.45
2023-02-11T14:39:52.786Z,10.60
2023-02-11T14:42:26.714Z,10.85
2023-02-11T14:44:56.831Z,12.57
2023-02-11T14:47:31.824Z,21.55
2023-02-11T14:49:58.786Z,24.30
2023-02-11T14:52:34.536Z,16.38
2023-02-11T14:55:24.545Z,14.65
2023-02-11T14:58:06.051Z,17.38
2023-02-11T15:00:33.383Z,22.60
2023-02-11T15:03:00.358Z,27.65
2023-02-11T15:05:29.081Z,34.92
2023-02-11T15:08:02.071Z,29.15
2023-02-11T15:10:37.776Z,34.47
2023-02-11T15:13:05.332Z,24.33
2023-02-11T15:15:33.263Z,20.60
2023-02-11T15:18:04.168Z,20.55
2023-02-11T15:20:33.684Z,18.00
2023-02-11T15:23:08.284Z,26.85
2023-02-11T15:25:43.174Z,24.45
2023-02-11T15:28:23.410Z,28.05
2023-02-11T15:31:13.723Z,22.35
2023-02-11T15:33:40.813Z,29.30
2023-02-11T15:36:15.591Z,37.72
2023-02-11T15:38:42.678Z,37.35
2023-02-11T15:41:36.916Z,37.58
2023-02-11T15:44:04.359Z,36.00
2023-02-11T15:46:38.972Z,39.83
2023-02-11T15:49:08.066Z,39.58
2023-02-11T15:51:39.970Z,39.28
2023-02-11T15:54:19.626Z,42.22
2023-02-11T15:56:50.875Z,26.35
2023-02-11T15:59:39.094Z,26.92
2023-02-11T16:02:17.241Z,23.38
2023-02-11T16:04:56.500Z,20.67
2023-02-11T16:07:49.894Z,23.92
2023-02-11T16:10:30.288Z,24.92
2023-02-11T16:13:03.163Z,31.93
2023-02-11T16:15:45.133Z,48.28
2023-02-11T16:18:38.397Z,39.17
2023-02-11T16:21:14.525Z,37.58
2023-02-11T16:27:23.448Z,49.65
2023-02-11T16:29:51.622Z,78.85
2023-02-11T16:32:24.128Z,54.00
2023-02-11T16:34:52.261Z,60.30
2023-02-11T16:37:19.144Z,75.10
2023-02-11T16:39:46.082Z,61.97
2023-02-11T16:42:13.337Z,66.65
2023-02-11T16:44:40.464Z,77.25
2023-02-11T16:47:13.529Z,76.22
2023-02-11T16:49:42.673Z,87.68
2023-02-11T16:52:14.925Z,98.13
2023-02-11T16:54:42.002Z,70.38
2023-02-11T16:57:18.185Z,68.10
2023-02-11T16:59:45.603Z,52.88
2023-02-11T17:02:27.718Z,65.07
2023-02-11T17:04:56.305Z,63.65
2023-02-11T17:07:23.221Z,81.40
2023-02-11T17:09:51.799Z,47.42
2023-02-11T17:12:19.271Z,72.95
2023-02-11T17:14:46.150Z,69.75
2023-02-11T17:17:13.451Z,59.17
2023-02-11T17:19:40.304Z,78.47
2023-02-11T17:22:07.153Z,80.57
2023-02-11T17:24:34.061Z,79.28
2023-02-11T17:27:00.946Z,80.03
2023-02-11T17:29:27.852Z,83.70
2023-02-11T17:31:55.103Z,84.80
2023-02-11T17:34:22.758Z,72.53
2023-02-11T17:36:50.254Z,77.47
2023-02-11T17:39:17.249Z,75.80
2023-02-11T17:41:44.148Z,77.75
2023-02-11T17:44:12.560Z,85.40
2023-02-11T17:46:39.687Z,74.65
2023-02-11T17:49:06.503Z,72.63
2023-02-11T17:51:36.249Z,65.45
2023-02-11T17:54:10.718Z,70.25
2023-02-11T17:56:38.513Z,68.07
2023-02-11T17:59:06.888Z,73.00
2023-02-11T18:01:35.195Z,65.45
2023-02-11T18:04:02.462Z,89.13
2023-02-11T18:06:29.372Z,101.63
2023-02-11T18:09:02.032Z,102.93
2023-02-11T18:11:35.015Z,102.75
2023-02-11T18:14:04.893Z,93.00
2023-02-11T18:16:34.464Z,89.10
2023-02-11T18:19:01.436Z,89.00
2023-02-11T18:21:28.406Z,89.93
2023-02-11T18:23:57.019Z,108.75
2023-02-11T18:26:26.349Z,108.97
2023-02-11T18:28:53.377Z,105.28
2023-02-11T18:31:22.080Z,102.68
2023-02-11T18:33:49.166Z,107.28
2023-02-11T18:36:16.761Z,111.28
2023-02-11T18:38:46.409Z,108.30
2023-02-11T18:41:14.326Z,111.38
2023-02-11T18:43:43.125Z,116.68
2023-02-11T18:46:12.740Z,114.20
2023-02-11T18:48:40.251Z,109.90
2023-02-11T18:51:16.786Z,110.45
2023-02-11T18:53:43.639Z,101.95
2023-02-11T18:56:16.525Z,111.30
2023-02-11T18:58:43.761Z,109.40
2023-02-11T19:01:15.114Z,102.68
2023-02-11T19:03:43.248Z,102.53
2023-02-11T19:06:20.222Z,100.32
2023-02-11T19:08:47.692Z,102.35
2023-02-11T19:11:16.308Z,104.18
2023-02-11T19:13:43.272Z,100.82
2023-02-11T19:16:11.591Z,90.45
2023-02-11T19:18:39.131Z,75.25
2023-02-11T19:21:10.842Z,53.60
2023-02-11T19:23:37.873Z,57.53
2023-02-11T19:26:06.589Z,57.35
2023-02-11T19:28:35.459Z,55.55
2023-02-11T19:31:07.664Z,48.42
2023-02-11T19:33:35.046Z,51.83
2023-02-11T19:36:07.141Z,46.88
2023-02-11T19:38:35.204Z,47.38
2023-02-11T19:41:02.495Z,45.70
2023-02-11T19:43:29.489Z,43.60
2023-02-11T19:45:57.657Z,42.60
2023-02-11T19:48:25.646Z,45.05
2023-02-11T19:50:52.676Z,47.45
2023-02-11T19:53:19.621Z,38.83
2023-02-11T19:55:46.739Z,41.13
2023-02-11T19:58:15.720Z,42.90
2023-02-11T20:00:43.425Z,43.25
2023-02-11T20:03:10.768Z,43.88
2023-02-11T20:05:42.444Z,39.85
2023-02-11T20:08:21.689Z,35.45
2023-02-11T20:11:16.001Z,34.28
2023-02-11T20:13:43.513Z,38.72
2023-02-11T20:16:16.885Z,39.25
2023-02-11T20:18:45.143Z,41.65
2023-02-11T20:21:16.332Z,41.45
2023-02-11T20:23:46.133Z,40.78
2023-02-11T20:26:15.760Z,42.85
2023-02-11T20:28:43.030Z,52.58
2023-02-11T20:31:11.874Z,48.05
2023-02-11T20:33:39.918Z,43.60
2023-02-11T20:36:09.481Z,25.08
2023-02-11T20:38:36.418Z,17.58
2023-02-11T20:41:07.243Z,17.10
2023-02-11T20:43:36.938Z,20.63
2023-02-11T20:46:06.503Z,23.80
2023-02-11T20:48:35.013Z,30.65
2023-02-11T20:51:04.256Z,29.42
2023-02-11T20:53:31.125Z,25.15
2023-02-11T20:56:05.272Z,31.77
2023-02-11T20:58:32.782Z,29.10
2023-02-11T21:01:14.353Z,28.30
2023-02-11T21:03:43.845Z,25.02
2023-02-11T21:06:11.579Z,20.92
2023-02-11T21:08:38.720Z,23.35
2023-02-11T21:11:09.467Z,22.20
2023-02-11T21:13:38.032Z,18.33
2023-02-11T21:16:05.351Z,20.67
2023-02-11T21:18:32.472Z,25.55
2023-02-11T21:21:01.085Z,24.92
2023-02-11T21:23:29.139Z,26.42
2023-02-11T21:25:57.199Z,26.05
2023-02-11T21:28:27.877Z,27.40
2023-02-11T21:30:56.334Z,27.42
2023-02-11T21:33:24.907Z,22.48
2023-02-11T21:35:59.374Z,24.90
2023-02-11T21:38:27.308Z,22.75
2023-02-11T21:40:54.385Z,21.90
2023-02-11T21:43:22.055Z,23.80
2023-02-11T21:45:51.157Z,21.58
2023-02-11T21:48:18.744Z,19.08
2023-02-11T21:50:47.305Z,18.38
2023-02-11T21:53:15.407Z,15.80
2023-02-11T21:55:42.382Z,15.70
2023-02-11T21:58:18.327Z,15.38
2023-02-11T22:00:45.185Z,13.77
2023-02-11T22:03:12.605Z,13.55
2023-02-11T22:05:42.458Z,14.00
2023-02-11T22:08:09.309Z,15.75
2023-02-11T22:10:36.151Z,13.57
2023-02-11T22:13:03.034Z,13.25
2023-02-11T22:15:29.952Z,14.82
2023-02-11T22:17:56.842Z,19.17
2023-02-11T22:20:23.679Z,21.63
2023-02-11T22:22:53.270Z,24.42
2023-02-11T22:25:20.215Z,20.85
2023-02-11T22:27:47.149Z,21.38
2023-02-11T22:30:14.271Z,22.48
2023-02-11T22:32:42.639Z,24.92
2023-02-11T22:35:13.628Z,20.50
2023-02-11T22:37:40.598Z,22.58
2023-02-11T22:40:08.014Z,22.77
2023-02-11T22:42:34.829Z,19.88
2023-02-11T22:45:03.365Z,21.13
2023-02-11T22:47:30.534Z,21.10
2023-02-11T22:49:57.644Z,19.55
2023-02-11T22:52:24.814Z,18.70
2023-02-11T22:54:52.375Z,18.55
2023-02-11T22:57:19.216Z,18.15
2023-02-11T22:59:46.137Z,18.10
2023-02-11T23:02:14.003Z,19.23
2023-02-11T23:04:41.177Z,21.35
2023-02-11T23:07:33.391Z,23.52
2023-02-11T23:10:00.507Z,22.20
2023-02-11T23:12:27.541Z,21.45
2023-02-11T23:14:57.263Z,20.80
2023-02-11T23:17:26.079Z,18.30
2023-02-11T23:19:56.797Z,21.23
2023-02-11T23:22:29.148Z,18.17
2023-02-11T23:25:07.836Z,19.77
2023-02-11T23:27:34.987Z,20.00
2023-02-11T23:30:09.006Z,18.85
2023-02-11T23:32:39.413Z,17.00
2023-02-11T23:35:09.875Z,17.02
2023-02-11T23:37:36.888Z,18.30
2023-02-11T23:40:12.831Z,16.95
2023-02-11T23:42:39.766Z,16.77
2023-02-11T23:45:08.015Z,16.35
2023-02-11T23:47:35.193Z,16.95
2023-02-11T23:50:02.089Z,17.65
2023-02-11T23:52:28.975Z,16.67
2023-02-11T23:54:55.796Z,17.33
2023-02-11T23:57:22.968Z,15.57
2023-02-11T23:59:50.545Z,14.15
